Baltimore, Maryland
Traffic Map
Current Weather Conditions
Baltimore, Maryland
Scattered Clouds
Scattered Clouds
20°
Feels Like: 20°
Wind Chill: 20° Ceiling: Unl
Heat Index: 20° Visibility: 10mi
Dew Point: 16° Wind: 3mph
Humidity: 76% Direction: 130° (SE)
Pressure: 30.02in Gusts: 0mph
Raw Report DataKBWI 182254Z 13003KT 10SM SCT045 SCT075 SCT250 20/16 A3002 RMK AO2 SLP165 TCU DSNT SE-S T02000156
Traffic Incident Summary
Active as of:
Severity:
Category:
InformationThere was an issue retrieving the traffic information for this location. Please try a different location or try again shortly.
Advertisements
Track Severe Weather on mobile